Lily Dale, New York
Current Conditions -  °F | °C
As of 6:53 AM on Saturday 01 Nov 2014 (Local Time) from KDKK Reporting Station
Overcast Overcast  
Wind Chill: 33°   Ceiling: 900
Heat Index: 40°   Visibility: 10mi
Dew Point: 38°   Wind: 12mph
Humidity: 93%   Direction: 10°N
Pressure: 30.03"   Gusts: 23mph
Location:  42.35°N, 79.32°W
Report Text: KDKK 011053Z AUTO 01010G20KT 10SM OVC009 04/03 A3003 RMK AO2 RAE34 SLP173 P0000 T00440033
Loading
Personal Weather Stations






























Interactive Weather Map
Tropical Storm Tracking
New forecast layout! Learn more

10-Day Weather Forecast

Advertisements
Track Severe Weather on mobile